Time;durP1;ratioP1;P1;durP2;ratioP2;P2;SDS_P1;SDS_P2;PMS_P1;PMS_P2;Temp;Humidity;BMP_temperature;BMP_pressure;BME280_temperature;BME280_humidity;BME280_pressure;Samples;Min_cycle;Max_cycle;Signal;HPM_P1;HPM_P2
2022/10/29 00:02:25;;;;;;;3.73;3.03;;;15.20;99.90;;;;;;5051765;28;20466;-67
2022/10/29 00:04:52;;;;;;;4.10;2.67;;;15.20;99.90;;;;;;5052464;28;21021;-67
2022/10/29 00:07:19;;;;;;;4.73;2.70;;;15.10;99.90;;;;;;5052425;28;20467;-67
2022/10/29 00:09:47;;;;;;;2.90;2.50;;;15.10;99.90;;;;;;5052486;28;20829;-67
2022/10/29 00:12:13;;;;;;;4.70;2.60;;;15.00;99.90;;;;;;5051864;28;20487;-67
2022/10/29 00:14:40;;;;;;;3.60;2.83;;;14.90;99.90;;;;;;5052270;28;20953;-67
2022/10/29 00:17:07;;;;;;;3.97;2.67;;;14.80;99.90;;;;;;5052224;28;20471;-67
2022/10/29 00:19:33;;;;;;;4.10;2.60;;;14.80;99.90;;;;;;5052262;28;20955;-67
2022/10/29 00:22:00;;;;;;;5.43;2.63;;;14.70;99.90;;;;;;5051793;28;20471;-67
2022/10/29 00:24:27;;;;;;;4.10;2.80;;;14.60;99.90;;;;;;5051787;28;21026;-67
2022/10/29 00:26:55;;;;;;;3.23;2.50;;;14.60;99.90;;;;;;5052156;28;20460;-67
2022/10/29 00:29:22;;;;;;;7.57;3.07;;;14.50;99.90;;;;;;5051948;28;20471;-67
2022/10/29 00:31:49;;;;;;;5.97;4.77;;;14.50;99.90;;;;;;5051430;28;20464;-67
2022/10/29 00:34:16;;;;;;;3.80;3.27;;;14.50;99.90;;;;;;5051822;28;20480;-67
2022/10/29 00:36:43;;;;;;;6.03;3.90;;;14.40;99.90;;;;;;5052003;28;20460;-67
2022/10/29 00:39:13;;;;;;;6.97;3.07;;;14.40;99.90;;;;;;5051768;28;20464;-67
2022/10/29 00:41:39;;;;;;;9.30;4.00;;;14.30;99.90;;;;;;5051526;28;20467;-67
2022/10/29 00:44:37;;;;;;;5.40;2.77;;;14.30;99.90;;;;;;5051597;28;20875;-67
2022/10/29 00:47:16;;;;;;;4.00;3.47;;;14.30;99.90;;;;;;4969882;28;20558;-67
2022/10/29 00:49:44;;;;;;;3.30;3.03;;;14.30;99.90;;;;;;5039735;28;20479;-67
2022/10/29 00:52:13;;;;;;;3.40;3.03;;;14.20;99.90;;;;;;5050936;28;20460;-67
2022/10/29 00:54:42;;;;;;;3.57;2.90;;;14.20;99.90;;;;;;5051592;28;21045;-67
2022/10/29 00:57:13;;;;;;;5.50;3.07;;;14.20;99.90;;;;;;5051502;28;20452;-67
2022/10/29 00:59:42;;;;;;;6.13;3.50;;;14.20;99.90;;;;;;5051834;28;20447;-67
2022/10/29 01:02:09;;;;;;;3.80;3.00;;;14.10;99.90;;;;;;5050998;28;20523;-67
2022/10/29 01:04:37;;;;;;;3.87;3.20;;;14.00;99.90;;;;;;5051303;28;20488;-67
2022/10/29 01:07:04;;;;;;;4.30;3.17;;;14.00;99.90;;;;;;5051490;28;20463;-67
2022/10/29 01:09:31;;;;;;;7.17;3.40;;;14.00;99.90;;;;;;5051169;28;20951;-67
2022/10/29 01:12:10;;;;;;;4.50;2.80;;;13.90;99.90;;;;;;5050928;28;20464;-67
2022/10/29 01:14:50;;;;;;;6.93;3.23;;;13.90;99.90;;;;;;5051098;28;20483;-67
2022/10/29 01:17:28;;;;;;;4.10;3.20;;;13.90;99.90;;;;;;5051101;28;20844;-67
2022/10/29 01:20:16;;;;;;;4.37;2.70;;;13.80;99.90;;;;;;5051264;28;20873;-67
2022/10/29 01:22:50;;;;;;;4.83;2.83;;;13.80;99.90;;;;;;5050551;28;20468;-69
2022/10/29 01:25:36;;;;;;;9.70;3.60;;;13.80;99.90;;;;;;5050868;28;20484;-67
2022/10/29 01:28:20;;;;;;;3.50;3.17;;;13.80;99.90;;;;;;5051139;28;20478;-67
2022/10/29 01:31:22;;;;;;;3.20;2.80;;;13.70;99.90;;;;;;5050861;28;20468;-67
2022/10/29 01:33:55;;;;;;;5.23;3.10;;;13.80;99.90;;;;;;5051150;28;20839;-67
2022/10/29 01:36:29;;;;;;;2.93;2.57;;;13.70;99.90;;;;;;5050916;28;20824;-67
2022/10/29 01:39:05;;;;;;;5.70;3.20;;;13.80;99.90;;;;;;5051297;28;20452;-67
2022/10/29 01:41:39;;;;;;;3.13;2.83;;;13.80;99.90;;;;;;5050689;28;20845;-67
2022/10/29 01:44:14;;;;;;;6.80;2.97;;;13.80;99.90;;;;;;5050729;28;20479;-67
2022/10/29 01:46:46;;;;;;;5.40;3.20;;;13.70;99.90;;;;;;5050879;28;20490;-67
2022/10/29 01:49:18;;;;;;;3.90;2.80;;;13.70;99.90;;;;;;5050359;28;20462;-67
2022/10/29 01:51:46;;;;;;;3.67;2.93;;;13.70;99.90;;;;;;5050539;28;20460;-67
2022/10/29 01:54:13;;;;;;;5.10;3.00;;;13.60;99.90;;;;;;5050748;28;21015;-67
2022/10/29 01:56:40;;;;;;;3.87;2.60;;;13.70;99.90;;;;;;5050940;28;20456;-67
2022/10/29 01:59:10;;;;;;;3.23;2.83;;;13.70;99.90;;;;;;5050646;28;20566;-67
2022/10/29 02:01:51;;;;;;;3.73;3.40;;;13.70;99.90;;;;;;5050165;28;20467;-67
2022/10/29 02:04:33;;;;;;;5.10;3.33;;;13.70;99.90;;;;;;5050319;28;20480;-67
2022/10/29 02:07:13;;;;;;;4.77;3.23;;;13.60;99.90;;;;;;5050611;28;20456;-67
2022/10/29 02:09:48;;;;;;;3.73;3.10;;;13.60;99.90;;;;;;5050513;28;20467;-67
2022/10/29 02:12:20;;;;;;;5.37;3.40;;;13.60;99.90;;;;;;5049851;28;20464;-67
2022/10/29 02:14:52;;;;;;;3.87;3.00;;;13.60;99.90;;;;;;5050286;28;20484;-67
2022/10/29 02:17:20;;;;;;;4.00;3.23;;;13.60;99.90;;;;;;5050346;28;20468;-67
2022/10/29 02:19:47;;;;;;;5.67;4.80;;;13.60;99.90;;;;;;5050516;28;20868;-67
2022/10/29 02:22:13;;;;;;;4.30;3.30;;;13.60;99.90;;;;;;5049826;28;20464;-67
2022/10/29 02:24:40;;;;;;;4.03;3.37;;;13.50;99.90;;;;;;5050363;28;20948;-67
2022/10/29 02:27:07;;;;;;;4.43;3.80;;;13.50;99.90;;;;;;5050379;28;20467;-67
2022/10/29 02:29:34;;;;;;;5.73;3.50;;;13.50;99.90;;;;;;5050212;28;20516;-67
2022/10/29 02:32:00;;;;;;;3.90;3.03;;;13.50;99.90;;;;;;5049900;28;20947;-67
2022/10/29 02:34:29;;;;;;;6.30;3.30;;;13.50;99.90;;;;;;5050254;28;20476;-67
2022/10/29 02:36:55;;;;;;;5.50;3.70;;;13.60;99.90;;;;;;5050301;28;20459;-67
2022/10/29 02:39:22;;;;;;;3.90;3.37;;;13.60;99.90;;;;;;5050066;28;20963;-66
2022/10/29 02:41:49;;;;;;;7.00;4.03;;;13.60;99.90;;;;;;5049773;28;20461;-66
2022/10/29 02:44:15;;;;;;;5.00;3.17;;;13.70;99.90;;;;;;5049826;28;20864;-66
2022/10/29 02:46:42;;;;;;;6.10;3.50;;;13.70;99.90;;;;;;5050237;28;20483;-66
2022/10/29 02:49:09;;;;;;;4.87;4.10;;;13.80;99.90;;;;;;5050096;28;20460;-66
2022/10/29 02:51:37;;;;;;;9.40;3.47;;;13.70;99.90;;;;;;5049593;28;20464;-66
2022/10/29 02:54:04;;;;;;;5.97;3.97;;;13.70;99.90;;;;;;5050181;28;20856;-66
2022/10/29 02:56:30;;;;;;;4.57;3.67;;;13.70;99.90;;;;;;5050123;28;20527;-66
2022/10/29 02:58:57;;;;;;;4.77;3.47;;;13.70;99.90;;;;;;5049985;28;20460;-66
2022/10/29 03:01:24;;;;;;;4.23;3.70;;;13.70;99.90;;;;;;5049411;28;20471;-66
2022/10/29 03:03:51;;;;;;;4.60;3.47;;;13.70;99.90;;;;;;5049892;28;20456;-66
2022/10/29 03:06:19;;;;;;;8.43;3.90;;;13.70;99.90;;;;;;5049789;28;20511;-66
2022/10/29 03:08:47;;;;;;;4.47;3.63;;;13.70;99.90;;;;;;5050210;28;20460;-66
2022/10/29 03:11:14;;;;;;;3.43;3.13;;;13.70;99.90;;;;;;5053001;28;20558;-66
2022/10/29 03:13:41;;;;;;;4.30;3.77;;;13.80;99.90;;;;;;5053283;28;20472;-66
2022/10/29 03:16:08;;;;;;;4.77;3.63;;;13.80;99.90;;;;;;5053440;28;20455;-66
2022/10/29 03:18:35;;;;;;;5.53;3.60;;;13.90;99.90;;;;;;5053482;28;20471;-66
2022/10/29 03:21:01;;;;;;;4.60;3.80;;;13.90;99.90;;;;;;5053450;28;20460;-66
2022/10/29 03:23:28;;;;;;;5.87;3.40;;;13.80;99.90;;;;;;5052584;28;20467;-66
2022/10/29 03:25:56;;;;;;;4.80;3.47;;;13.80;99.90;;;;;;5053207;28;20563;-66
2022/10/29 03:28:24;;;;;;;3.80;3.50;;;13.80;99.90;;;;;;5053012;28;20479;-66
2022/10/29 03:30:51;;;;;;;5.43;3.40;;;13.80;99.90;;;;;;5053273;28;20543;-66
2022/10/29 03:33:18;;;;;;;4.00;3.60;;;13.80;99.90;;;;;;5052719;28;20463;-66
2022/10/29 03:35:45;;;;;;;6.87;4.40;;;13.80;99.90;;;;;;5053204;28;20867;-66
2022/10/29 03:38:11;;;;;;;13.33;4.53;;;13.80;99.90;;;;;;5053065;28;20456;-66
2022/10/29 03:40:38;;;;;;;4.30;3.90;;;13.80;99.90;;;;;;5053121;28;20849;-66
2022/10/29 03:43:06;;;;;;;4.90;3.60;;;13.80;99.90;;;;;;5052457;28;20471;-66
2022/10/29 03:45:33;;;;;;;4.97;3.20;;;13.80;99.90;;;;;;5052923;28;20566;-66
2022/10/29 03:48:00;;;;;;;8.00;3.70;;;13.80;99.90;;;;;;5052741;28;20460;-66
2022/10/29 03:50:26;;;;;;;3.73;3.20;;;13.80;99.90;;;;;;5052655;28;20460;-67
2022/10/29 03:52:53;;;;;;;7.30;3.40;;;13.80;99.90;;;;;;5052499;28;20460;-66
2022/10/29 03:55:20;;;;;;;5.80;3.80;;;13.80;99.90;;;;;;5052638;28;20475;-66
2022/10/29 03:57:46;;;;;;;3.90;3.33;;;13.80;99.90;;;;;;5052928;28;20491;-66
2022/10/29 04:00:15;;;;;;;3.83;3.53;;;13.80;99.90;;;;;;5052488;28;20464;-66
2022/10/29 04:02:42;;;;;;;8.33;3.47;;;13.80;99.90;;;;;;5052383;28;20844;-66
2022/10/29 04:05:09;;;;;;;3.67;3.37;;;13.70;99.90;;;;;;5052444;28;20476;-66
2022/10/29 04:07:36;;;;;;;4.03;3.63;;;13.80;99.90;;;;;;5052749;28;20486;-66
2022/10/29 04:10:03;;;;;;;4.33;2.97;;;13.70;99.90;;;;;;5052414;28;20968;-66
2022/10/29 04:12:29;;;;;;;5.30;3.30;;;13.70;99.90;;;;;;5051703;28;20982;-66
2022/10/29 04:14:56;;;;;;;8.13;3.90;;;13.70;99.90;;;;;;5052529;28;20484;-66
2022/10/29 04:17:24;;;;;;;4.53;3.50;;;13.70;99.90;;;;;;5052252;28;20464;-66
2022/10/29 04:19:51;;;;;;;5.00;4.53;;;13.70;99.90;;;;;;5052269;28;20467;-66
2022/10/29 04:22:17;;;;;;;6.10;4.50;;;13.70;99.90;;;;;;5051673;28;20475;-66
2022/10/29 04:24:44;;;;;;;5.80;3.50;;;13.70;99.90;;;;;;5052138;28;20480;-66
2022/10/29 04:27:11;;;;;;;5.93;3.50;;;13.70;99.90;;;;;;5051961;28;20487;-66
2022/10/29 04:29:38;;;;;;;6.40;3.87;;;13.70;99.90;;;;;;5052257;28;20464;-66
2022/10/29 04:32:04;;;;;;;7.20;4.03;;;13.70;99.90;;;;;;5051680;28;20463;-66
2022/10/29 04:34:33;;;;;;;6.30;3.70;;;13.70;99.90;;;;;;5051962;28;20482;-66
2022/10/29 04:36:59;;;;;;;6.83;3.83;;;13.70;99.90;;;;;;5052093;28;20464;-66
2022/10/29 04:39:26;;;;;;;6.30;3.53;;;13.70;99.90;;;;;;5051767;28;20456;-66
2022/10/29 04:41:53;;;;;;;4.53;3.80;;;13.70;99.90;;;;;;5051450;28;20831;-66
2022/10/29 04:44:20;;;;;;;4.20;3.60;;;13.70;99.90;;;;;;5051739;28;20491;-66
2022/10/29 04:46:47;;;;;;;5.90;3.63;;;13.70;99.90;;;;;;5051860;28;20491;-66
2022/10/29 04:49:14;;;;;;;5.53;4.17;;;13.60;99.90;;;;;;5051839;28;20947;-66
2022/10/29 04:51:42;;;;;;;6.50;3.90;;;13.60;99.90;;;;;;5052038;28;20471;-67
2022/10/29 04:54:09;;;;;;;4.00;3.60;;;13.60;99.90;;;;;;5051709;28;20563;-66
2022/10/29 04:56:36;;;;;;;4.67;3.70;;;13.50;99.90;;;;;;5051682;28;20462;-66
2022/10/29 04:59:02;;;;;;;7.10;3.73;;;13.50;99.90;;;;;;5051512;28;20471;-66
2022/10/29 05:01:30;;;;;;;6.00;3.80;;;13.50;99.90;;;;;;5050938;28;20461;-66
2022/10/29 05:03:57;;;;;;;4.90;3.70;;;13.40;99.90;;;;;;5051699;28;20468;-66
2022/10/29 05:06:23;;;;;;;4.13;3.73;;;13.30;99.90;;;;;;5051353;28;20488;-66
2022/10/29 05:08:51;;;;;;;8.03;4.30;;;13.30;99.90;;;;;;5051595;28;20821;-66
2022/10/29 05:11:18;;;;;;;6.67;4.10;;;13.30;99.90;;;;;;5050849;28;20829;-66
2022/10/29 05:13:45;;;;;;;3.20;2.63;;;13.20;99.90;;;;;;5123623;22;20480;-67
2022/10/29 05:16:12;;;;;;;5.37;3.60;;;13.20;99.90;;;;;;5010985;28;20809;-66
2022/10/29 05:18:38;;;;;;;5.87;4.20;;;13.30;99.90;;;;;;5011468;28;20454;-65
2022/10/29 05:21:05;;;;;;;7.13;4.83;;;13.20;99.90;;;;;;5011544;28;20975;-67
2022/10/29 05:23:32;;;;;;;5.63;4.00;;;13.10;99.90;;;;;;5010893;28;20489;-67
2022/10/29 05:26:01;;;;;;;4.13;3.30;;;13.10;99.90;;;;;;5011331;28;20864;-65
2022/10/29 05:28:28;;;;;;;6.97;3.67;;;13.00;99.90;;;;;;5010852;28;20466;-67
2022/10/29 05:30:54;;;;;;;6.90;5.40;;;13.00;99.90;;;;;;5011316;28;20458;-67
2022/10/29 05:33:24;;;;;;;4.70;3.87;;;13.00;99.90;;;;;;5010324;28;20462;-68
2022/10/29 05:35:51;;;;;;;7.10;3.60;;;13.10;99.90;;;;;;5011339;28;20478;-67
2022/10/29 05:38:19;;;;;;;5.37;3.90;;;13.00;99.90;;;;;;5011210;28;20473;-67
2022/10/29 05:40:46;;;;;;;5.97;4.47;;;12.90;99.90;;;;;;5011327;28;20477;-67
2022/10/29 05:43:16;;;;;;;5.33;3.67;;;12.90;99.90;;;;;;5010694;28;20472;-67
2022/10/29 05:45:43;;;;;;;5.80;4.23;;;12.90;99.90;;;;;;5011168;28;20478;-65
2022/10/29 05:48:11;;;;;;;7.60;3.87;;;12.80;99.90;;;;;;5011081;28;20476;-67
2022/10/29 05:50:38;;;;;;;6.03;3.80;;;12.80;99.90;;;;;;5011112;28;20459;-67
2022/10/29 05:53:06;;;;;;;4.13;3.57;;;12.80;99.90;;;;;;5010405;28;20457;-66
2022/10/29 05:55:35;;;;;;;4.60;3.53;;;12.70;99.90;;;;;;5011076;28;20485;-67
2022/10/29 05:58:03;;;;;;;7.50;3.93;;;12.70;99.90;;;;;;5011193;28;20458;-67
2022/10/29 06:00:34;;;;;;;4.13;3.50;;;12.70;99.90;;;;;;5011164;28;20469;-67
2022/10/29 06:03:01;;;;;;;3.97;3.40;;;12.60;99.90;;;;;;5010307;28;20465;-67
2022/10/29 06:05:28;;;;;;;7.87;4.03;;;12.60;99.90;;;;;;5011006;28;20496;-66
2022/10/29 06:07:56;;;;;;;4.00;3.53;;;12.60;99.90;;;;;;5011148;28;20490;-67
2022/10/29 06:10:23;;;;;;;4.60;4.00;;;12.60;99.90;;;;;;5010688;28;20473;-66
2022/10/29 06:12:50;;;;;;;4.97;3.90;;;12.60;99.90;;;;;;5010612;28;20969;-67
2022/10/29 06:15:17;;;;;;;5.68;4.10;;;12.50;99.90;;;;;;5009648;28;20465;-67
2022/10/29 06:17:46;;;;;;;6.03;4.10;;;12.60;99.90;;;;;;5011020;28;20570;-67
2022/10/29 06:20:14;;;;;;;6.83;4.20;;;12.50;99.90;;;;;;5010526;28;20477;-67
2022/10/29 06:22:41;;;;;;;4.30;3.40;;;12.50;99.90;;;;;;5010319;28;20458;-67
2022/10/29 06:25:08;;;;;;;4.47;3.27;;;12.50;99.90;;;;;;5010567;28;20482;-66
2022/10/29 06:27:35;;;;;;;6.87;3.60;;;12.50;99.90;;;;;;5010873;28;20498;-67
2022/10/29 06:30:02;;;;;;;6.77;3.27;;;12.40;99.90;;;;;;5010620;28;20835;-67
2022/10/29 06:32:28;;;;;;;5.60;4.00;;;12.40;99.90;;;;;;5010735;28;20465;-67
2022/10/29 06:34:57;;;;;;;5.40;3.83;;;12.40;99.90;;;;;;5010920;28;20482;-67
2022/10/29 06:37:23;;;;;;;4.90;3.90;;;12.30;99.90;;;;;;5010558;28;20457;-67
2022/10/29 06:39:50;;;;;;;5.90;3.57;;;12.30;99.90;;;;;;5010726;28;20462;-67
2022/10/29 06:42:17;;;;;;;5.67;3.87;;;12.30;99.90;;;;;;5009959;28;20524;-67
2022/10/29 06:44:43;;;;;;;4.73;3.73;;;12.30;99.90;;;;;;5012404;28;20907;-67
2022/10/29 06:47:10;;;;;;;4.87;3.17;;;12.30;99.90;;;;;;5014190;28;20496;-67
2022/10/29 06:49:37;;;;;;;6.73;3.70;;;12.30;99.90;;;;;;5014271;28;20965;-67
2022/10/29 06:52:05;;;;;;;4.00;3.57;;;12.30;99.90;;;;;;5013756;28;20472;-67
2022/10/29 06:54:32;;;;;;;4.23;3.40;;;12.40;99.90;;;;;;5014085;28;21009;-67
2022/10/29 06:56:59;;;;;;;5.17;4.20;;;12.50;99.90;;;;;;5014347;28;20469;-67
2022/10/29 06:59:25;;;;;;;4.07;3.13;;;12.50;99.90;;;;;;5014032;28;20846;-66
2022/10/29 07:01:52;;;;;;;6.20;3.17;;;12.50;99.90;;;;;;5013976;28;20466;-67
2022/10/29 07:04:20;;;;;;;3.90;3.50;;;12.50;99.90;;;;;;5013836;28;20486;-67
2022/10/29 07:06:47;;;;;;;10.23;4.77;;;12.60;99.90;;;;;;5013978;28;20485;-67
2022/10/29 07:09:15;;;;;;;8.70;5.10;;;12.60;99.90;;;;;;5013735;28;20466;-68
2022/10/29 07:11:41;;;;;;;7.80;4.10;;;12.60;99.90;;;;;;5013513;28;20462;-67
2022/10/29 07:14:08;;;;;;;5.00;3.60;;;12.70;99.90;;;;;;5013668;28;20493;-68
2022/10/29 07:16:35;;;;;;;7.33;3.37;;;12.80;99.90;;;;;;5013790;28;20561;-67
2022/10/29 07:19:02;;;;;;;6.00;4.27;;;13.00;99.90;;;;;;5013708;28;20465;-67
2022/10/29 07:21:29;;;;;;;4.70;3.77;;;13.20;99.90;;;;;;5012951;28;20476;-67
2022/10/29 07:23:56;;;;;;;4.30;3.13;;;13.40;99.90;;;;;;5013366;28;20461;-67
2022/10/29 07:26:24;;;;;;;5.37;3.53;;;13.60;99.90;;;;;;5013333;28;20453;-67
2022/10/29 07:28:51;;;;;;;5.33;4.00;;;13.80;99.90;;;;;;5013459;28;20465;-68
2022/10/29 07:31:17;;;;;;;5.97;3.60;;;14.00;99.90;;;;;;5012484;28;20850;-68
2022/10/29 07:33:44;;;;;;;7.60;3.30;;;14.20;99.90;;;;;;5013258;28;20485;-67
2022/10/29 07:36:11;;;;;;;6.90;2.93;;;14.30;99.90;;;;;;5005963;28;20466;-67
2022/10/29 07:38:37;;;;;;;5.13;3.10;;;14.50;99.90;;;;;;5005834;28;20466;-68
2022/10/29 07:41:04;;;;;;;4.10;3.17;;;14.60;99.90;;;;;;5011212;28;20466;-67
2022/10/29 07:43:32;;;;;;;3.93;2.70;;;14.90;99.90;;;;;;5011434;28;20474;-67
2022/10/29 07:45:59;;;;;;;3.00;2.67;;;15.10;99.90;;;;;;5011505;28;20867;-66
2022/10/29 07:48:26;;;;;;;5.53;2.97;;;15.30;99.90;;;;;;5011975;28;20526;-67
2022/10/29 07:50:53;;;;;;;3.70;3.30;;;15.50;99.90;;;;;;5012201;28;20501;-69
2022/10/29 07:53:19;;;;;;;9.37;2.90;;;15.70;99.90;;;;;;5012185;28;20475;-67
2022/10/29 07:55:53;;;;;;;3.50;2.90;;;15.90;99.90;;;;;;5012688;28;20490;-67
2022/10/29 07:58:20;;;;;;;5.47;2.93;;;16.10;99.90;;;;;;5012615;28;20483;-66
2022/10/29 08:00:48;;;;;;;3.77;3.13;;;16.30;99.90;;;;;;5012807;28;20829;-67
2022/10/29 08:03:15;;;;;;;6.53;3.13;;;16.60;99.90;;;;;;5011989;28;20469;-67
2022/10/29 08:05:42;;;;;;;4.27;3.50;;;16.80;99.90;;;;;;5012632;28;20489;-67
2022/10/29 08:08:09;;;;;;;3.70;2.93;;;17.10;99.90;;;;;;5012565;28;20486;-67
2022/10/29 08:10:36;;;;;;;4.90;2.90;;;17.30;99.90;;;;;;5012535;28;20516;-67
2022/10/29 08:13:04;;;;;;;4.93;3.00;;;17.50;99.90;;;;;;5011892;28;20468;-67
2022/10/29 08:15:33;;;;;;;3.00;2.47;;;17.80;99.90;;;;;;5010447;28;20493;-67
2022/10/29 08:18:02;;;;;;;6.30;3.00;;;18.10;99.90;;;;;;5011661;28;20458;-68
2022/10/29 08:20:30;;;;;;;5.20;3.27;;;18.40;99.90;;;;;;5012484;28;20949;-67
2022/10/29 08:23:00;;;;;;;3.90;3.47;;;18.70;99.90;;;;;;5012142;28;20472;-66
2022/10/29 08:25:27;;;;;;;5.90;3.07;;;19.10;99.90;;;;;;5011865;28;20486;-67
2022/10/29 08:28:01;;;;;;;2.57;2.37;;;19.40;99.90;;;;;;5012500;28;20486;-68
2022/10/29 08:30:28;;;;;;;3.47;3.07;;;19.60;99.90;;;;;;5012627;28;20473;-67
2022/10/29 08:32:55;;;;;;;7.60;2.70;;;19.90;99.90;;;;;;5012177;28;20831;-68
2022/10/29 08:35:23;;;;;;;4.63;2.70;;;20.10;99.90;;;;;;5012183;28;20485;-68
2022/10/29 08:37:50;;;;;;;5.40;2.77;;;20.30;99.90;;;;;;5012635;28;20465;-68
2022/10/29 08:40:28;;;;;;;3.77;2.50;;;20.50;99.90;;;;;;5008084;28;20463;-68
2022/10/29 08:43:21;;;;;;;2.33;2.13;;;20.80;99.90;;;;;;5011086;28;20497;-68
2022/10/29 08:45:50;;;;;;;3.10;2.63;;;21.10;99.90;;;;;;5001494;28;20495;-68
2022/10/29 08:48:27;;;;;;;3.40;3.10;;;21.40;99.90;;;;;;5011107;28;20540;-68
2022/10/29 08:51:01;;;;;;;3.00;2.30;;;21.60;99.90;;;;;;5011360;28;20467;-68
2022/10/29 08:53:36;;;;;;;2.93;2.63;;;21.60;99.90;;;;;;5010738;28;21002;-68
2022/10/29 08:56:05;;;;;;;4.20;2.60;;;21.70;99.90;;;;;;5011576;28;20487;-68
2022/10/29 08:58:40;;;;;;;8.33;2.83;;;21.80;99.90;;;;;;5011424;28;20471;-68
2022/10/29 09:01:11;;;;;;;4.83;2.70;;;22.00;99.90;;;;;;5011271;28;20465;-68
2022/10/29 09:03:37;;;;;;;3.83;2.40;;;22.20;99.90;;;;;;5011366;28;21015;-68
2022/10/29 09:06:11;;;;;;;3.57;2.40;;;22.40;99.90;;;;;;5011076;28;20469;-68
2022/10/29 09:09:08;;;;;;;4.00;2.47;;;22.60;99.90;;;;;;5010894;28;20496;-68
2022/10/29 09:11:47;;;;;;;5.30;2.90;;;22.80;99.90;;;;;;5008281;28;20479;-68
2022/10/29 09:14:39;;;;;;;6.00;2.90;;;22.90;99.90;;;;;;5010385;28;20497;-68
2022/10/29 09:17:20;;;;;;;8.60;3.60;;;23.10;99.90;;;;;;5010958;28;20462;-68
2022/10/29 09:20:03;;;;;;;8.70;3.30;;;23.30;99.90;;;;;;5010243;28;20473;-68
2022/10/29 09:22:41;;;;;;;3.93;3.20;;;23.40;99.90;;;;;;4971963;28;20482;-69
2022/10/29 09:25:17;;;;;;;5.10;3.50;;;23.50;99.90;;;;;;4972666;28;20490;-69
2022/10/29 09:27:56;;;;;;;5.70;3.13;;;23.70;99.90;;;;;;4972837;28;21077;-68
2022/10/29 09:30:23;;;;;;;3.57;2.70;;;23.80;99.90;;;;;;4972796;28;20530;-70
2022/10/29 09:32:56;;;;;;;3.33;3.00;;;24.00;99.90;;;;;;4972501;28;20464;-68
2022/10/29 09:35:34;;;;;;;4.33;3.03;;;24.10;99.90;;;;;;4973438;28;20483;-69
2022/10/29 09:38:08;;;;;;;4.30;3.00;;;24.20;99.90;;;;;;4988275;28;20827;-69
2022/10/29 09:40:38;;;;;;;6.87;3.20;;;24.30;99.90;;;;;;4991504;28;20467;-68
2022/10/29 09:43:25;;;;;;;3.77;2.90;;;24.30;99.90;;;;;;4994600;28;20469;-68
2022/10/29 09:46:00;;;;;;;4.10;3.50;;;24.40;99.90;;;;;;4991363;28;20482;-68
2022/10/29 09:48:32;;;;;;;4.10;2.70;;;24.60;99.90;;;;;;4991200;28;20494;-68
2022/10/29 09:51:10;;;;;;;6.50;2.87;;;24.20;99.90;;;;;;4991267;28;20470;-68
2022/10/29 09:53:38;;;;;;;5.13;2.80;;;23.90;99.90;;;;;;4991165;28;20561;-68
2022/10/29 09:56:08;;;;;;;4.27;2.60;;;23.90;99.90;;;;;;4991549;28;20557;-68
2022/10/29 09:58:38;;;;;;;4.70;2.63;;;24.10;99.90;;;;;;4991517;28;20459;-68
2022/10/29 10:01:05;;;;;;;7.63;3.03;;;24.00;99.90;;;;;;4991294;28;20466;-69
2022/10/29 10:03:37;;;;;;;4.33;2.83;;;24.20;99.90;;;;;;4991234;28;21046;-68
2022/10/29 10:06:05;;;;;;;3.00;2.70;;;24.40;99.90;;;;;;4991347;28;20990;-68
2022/10/29 10:08:33;;;;;;;6.00;2.73;;;24.40;99.90;;;;;;4991467;28;20494;-69
2022/10/29 10:11:04;;;;;;;4.10;2.63;;;24.30;99.90;;;;;;4996428;28;20465;-68
2022/10/29 10:13:33;;;;;;;3.20;2.40;;;24.30;99.90;;;;;;5008350;28;20466;-68
2022/10/29 10:16:02;;;;;;;4.47;3.10;;;24.10;99.90;;;;;;5010683;28;20474;-68
2022/10/29 10:18:41;;;;;;;3.30;2.10;;;24.20;99.90;;;;;;5012215;28;20461;-68
2022/10/29 10:21:09;;;;;;;2.90;2.53;;;24.50;99.90;;;;;;5014449;28;20461;-69
2022/10/29 10:23:43;;;;;;;3.30;2.80;;;24.70;99.90;;;;;;5014920;28;20833;-69
2022/10/29 10:26:35;;;;;;;4.33;2.60;;;24.80;99.90;;;;;;5014951;28;20831;-68
2022/10/29 10:29:14;;;;;;;2.93;2.63;;;25.30;99.90;;;;;;5014654;28;20489;-69
2022/10/29 10:31:42;;;;;;;3.07;2.60;;;25.70;99.90;;;;;;5014319;28;20469;-68
2022/10/29 10:34:17;;;;;;;5.20;2.50;;;26.00;99.90;;;;;;5009202;28;20481;-69
2022/10/29 10:36:48;;;;;;;3.40;2.30;;;26.30;99.90;;;;;;4975830;28;20970;-69
2022/10/29 10:39:28;;;;;;;6.83;3.00;;;26.60;99.90;;;;;;5009309;28;20949;-68
2022/10/29 10:41:59;;;;;;;4.90;2.87;;;26.80;99.90;;;;;;4984251;28;20465;-68
2022/10/29 10:44:27;;;;;;;5.47;2.77;;;27.00;99.90;;;;;;5013970;28;20486;-69
2022/10/29 10:46:56;;;;;;;2.80;2.60;;;27.10;99.90;;;;;;5014326;28;20472;-68
2022/10/29 10:49:30;;;;;;;6.40;2.70;;;27.20;99.90;;;;;;5013762;28;20492;-69
2022/10/29 10:51:59;;;;;;;7.43;2.67;;;27.20;99.90;;;;;;5013868;28;20468;-69
2022/10/29 10:54:29;;;;;;;4.00;2.43;;;27.40;99.90;;;;;;5014178;28;20820;-69
2022/10/29 10:57:00;;;;;;;6.17;2.60;;;27.20;99.90;;;;;;5014495;28;20466;-69
2022/10/29 10:59:37;;;;;;;3.13;2.20;;;27.10;99.90;;;;;;5013702;28;20968;-68
2022/10/29 11:02:04;;;;;;;2.93;2.50;;;27.00;99.90;;;;;;5013548;28;20462;-68
2022/10/29 11:04:36;;;;;;;3.67;2.47;;;27.00;99.90;;;;;;5014097;28;20478;-68
2022/10/29 11:07:07;;;;;;;12.23;2.90;;;27.00;99.90;;;;;;5014161;28;20469;-68
2022/10/29 11:09:38;;;;;;;5.13;2.57;;;27.10;99.90;;;;;;5013653;28;20494;-68
2022/10/29 11:12:13;;;;;;;4.80;2.43;;;27.20;99.90;;;;;;5013370;28;20491;-68
2022/10/29 11:14:47;;;;;;;2.80;2.00;;;27.30;99.90;;;;;;5068344;22;20510;-96
2022/10/29 11:17:26;;;;;;;6.30;2.73;;;27.50;99.90;;;;;;5059659;28;20472;-93
2022/10/29 11:23:25;;;;;;;3.50;2.30;;;27.60;99.90;;;;;;5043924;22;20501;-65
2022/10/29 11:25:56;;;;;;;3.90;2.80;;;27.50;99.10;;;;;;5031076;28;20483;-66
2022/10/29 11:28:31;;;;;;;4.50;2.37;;;27.50;99.90;;;;;;5031446;28;20847;-66
2022/10/29 11:31:08;;;;;;;6.27;2.43;;;27.60;99.80;;;;;;5030814;28;20460;-66
2022/10/29 11:33:43;;;;;;;3.03;2.57;;;27.60;99.20;;;;;;5030852;28;20492;-66
2022/10/29 11:36:17;;;;;;;4.20;2.40;;;27.50;98.90;;;;;;5031083;28;20460;-66
2022/10/29 11:38:48;;;;;;;9.00;2.60;;;27.50;98.60;;;;;;5030950;28;20461;-66
2022/10/29 11:41:25;;;;;;;2.87;2.30;;;27.50;99.10;;;;;;5030811;28;20468;-66
2022/10/29 11:43:54;;;;;;;2.57;2.37;;;27.60;98.70;;;;;;5030821;28;20968;-66
2022/10/29 11:46:35;;;;;;;2.50;1.87;;;27.80;99.40;;;;;;5030907;28;20846;-66
2022/10/29 11:49:14;;;;;;;3.40;2.30;;;28.00;99.90;;;;;;5030331;28;20592;-66
2022/10/29 11:51:51;;;;;;;3.20;2.23;;;28.10;98.80;;;;;;5029848;28;20465;-65
2022/10/29 11:54:35;;;;;;;2.50;2.10;;;28.30;99.10;;;;;;5030553;28;20503;-66
2022/10/29 11:57:08;;;;;;;6.90;3.13;;;28.30;97.40;;;;;;5030809;28;20578;-65
2022/10/29 11:59:50;;;;;;;3.47;2.00;;;28.30;97.70;;;;;;5030295;28;20462;-66
2022/10/29 12:02:31;;;;;;;4.40;2.07;;;28.50;97.80;;;;;;5030678;28;20487;-66
2022/10/29 12:05:03;;;;;;;3.67;2.50;;;28.60;97.30;;;;;;5030745;28;20481;-66
2022/10/29 12:07:42;;;;;;;3.80;1.73;;;28.60;96.60;;;;;;5031447;28;20464;-66
2022/10/29 12:10:38;;;;;;;3.37;2.20;;;28.50;95.60;;;;;;5031161;28;20453;-66
2022/10/29 12:13:13;;;;;;;3.90;2.17;;;28.30;96.00;;;;;;5031183;28;20461;-66
2022/10/29 12:15:46;;;;;;;4.30;2.80;;;28.20;95.80;;;;;;5030608;28;20488;-66
2022/10/29 12:18:22;;;;;;;2.40;2.20;;;28.10;96.50;;;;;;5030876;28;20476;-65
2022/10/29 12:20:57;;;;;;;3.60;2.37;;;28.10;96.60;;;;;;5031387;28;20472;-66
2022/10/29 12:23:31;;;;;;;7.87;2.20;;;27.90;96.50;;;;;;5029992;28;20468;-65
2022/10/29 12:26:07;;;;;;;4.10;2.30;;;27.90;96.50;;;;;;5030061;28;21004;-66
2022/10/29 12:28:45;;;;;;;3.67;2.30;;;27.90;96.20;;;;;;5030338;28;20488;-66
2022/10/29 12:31:24;;;;;;;3.20;2.50;;;27.90;96.00;;;;;;5030173;28;20473;-66
2022/10/29 12:33:58;;;;;;;4.17;2.37;;;27.80;96.80;;;;;;5030629;28;20465;-65
2022/10/29 12:36:32;;;;;;;5.53;2.67;;;27.70;95.70;;;;;;5031093;28;20465;-65
2022/10/29 12:39:01;;;;;;;3.03;2.30;;;27.50;95.90;;;;;;5030514;28;20467;-65
2022/10/29 12:41:35;;;;;;;3.00;1.93;;;27.60;97.10;;;;;;5030808;28;20477;-65
2022/10/29 12:44:10;;;;;;;3.13;2.20;;;27.70;98.00;;;;;;5030865;28;20476;-65
2022/10/29 12:46:42;;;;;;;3.03;2.27;;;27.70;97.80;;;;;;5031157;28;20461;-66
2022/10/29 12:49:17;;;;;;;2.93;2.00;;;27.70;96.40;;;;;;5031044;28;20786;-65
2022/10/29 12:51:49;;;;;;;4.30;2.20;;;27.50;95.50;;;;;;5030107;28;20464;-65
2022/10/29 12:54:29;;;;;;;4.40;2.07;;;27.30;95.70;;;;;;5030151;28;20484;-65
2022/10/29 12:57:02;;;;;;;4.90;2.70;;;27.20;96.00;;;;;;5029633;28;20472;-66
2022/10/29 12:59:32;;;;;;;5.37;2.43;;;27.00;96.00;;;;;;5029790;28;20689;-66
2022/10/29 13:02:22;;;;;;;4.20;2.70;;;26.80;97.30;;;;;;5029436;28;20838;-66
2022/10/29 13:05:29;;;;;;;6.00;3.73;;;26.90;97.50;;;;;;5029870;28;20707;-67
2022/10/29 13:08:26;;;;;;;5.57;4.20;;;26.90;97.80;;;;;;5028326;28;20461;-66